sensor_id;sensor_type;location;lat;lon;timestamp;temperature;humidity
38361;DHT22;42005;48.044;14.416;2024-03-25T00:00:13;23.00;50.00
38361;DHT22;42005;48.044;14.416;2024-03-25T00:02:40;23.00;50.10
38361;DHT22;42005;48.044;14.416;2024-03-25T00:05:07;23.00;50.10
38361;DHT22;42005;48.044;14.416;2024-03-25T00:07:37;23.00;50.10
38361;DHT22;42005;48.044;14.416;2024-03-25T00:10:04;23.00;50.10
38361;DHT22;42005;48.044;14.416;2024-03-25T00:12:37;23.00;50.10
38361;DHT22;42005;48.044;14.416;2024-03-25T00:15:03;23.00;50.20
38361;DHT22;42005;48.044;14.416;2024-03-25T00:17:29;23.00;50.20
38361;DHT22;42005;48.044;14.416;2024-03-25T00:19:55;23.00;50.30
38361;DHT22;42005;48.044;14.416;2024-03-25T00:22:22;22.90;50.20
38361;DHT22;42005;48.044;14.416;2024-03-25T00:24:51;23.00;50.40
38361;DHT22;42005;48.044;14.416;2024-03-25T00:27:17;22.90;50.30
38361;DHT22;42005;48.044;14.416;2024-03-25T00:29:44;22.90;50.40
38361;DHT22;42005;48.044;14.416;2024-03-25T00:32:10;22.90;50.40
38361;DHT22;42005;48.044;14.416;2024-03-25T00:34:37;22.90;50.40
38361;DHT22;42005;48.044;14.416;2024-03-25T00:37:03;22.90;50.50
38361;DHT22;42005;48.044;14.416;2024-03-25T00:39:30;22.90;50.50
38361;DHT22;42005;48.044;14.416;2024-03-25T00:41:58;22.90;50.50
38361;DHT22;42005;48.044;14.416;2024-03-25T00:44:24;22.90;50.60
38361;DHT22;42005;48.044;14.416;2024-03-25T00:46:50;22.90;51.10
38361;DHT22;42005;48.044;14.416;2024-03-25T00:49:17;22.90;50.60
38361;DHT22;42005;48.044;14.416;2024-03-25T00:51:43;22.90;50.50
38361;DHT22;42005;48.044;14.416;2024-03-25T00:54:09;22.90;50.60
38361;DHT22;42005;48.044;14.416;2024-03-25T00:56:35;22.90;50.60
38361;DHT22;42005;48.044;14.416;2024-03-25T00:59:01;22.90;50.60
38361;DHT22;42005;48.044;14.416;2024-03-25T01:01:30;22.90;50.60
38361;DHT22;42005;48.044;14.416;2024-03-25T01:03:56;22.90;50.60
38361;DHT22;42005;48.044;14.416;2024-03-25T01:06:22;22.90;50.60
38361;DHT22;42005;48.044;14.416;2024-03-25T01:08:49;22.80;50.50
38361;DHT22;42005;48.044;14.416;2024-03-25T01:11:15;22.80;50.50
38361;DHT22;42005;48.044;14.416;2024-03-25T01:13:41;22.90;50.60
38361;DHT22;42005;48.044;14.416;2024-03-25T01:16:12;22.80;50.50
38361;DHT22;42005;48.044;14.416;2024-03-25T01:18:38;22.80;50.60
38361;DHT22;42005;48.044;14.416;2024-03-25T01:21:04;22.80;50.60
38361;DHT22;42005;48.044;14.416;2024-03-25T01:23:30;22.80;50.50
38361;DHT22;42005;48.044;14.416;2024-03-25T01:25:56;22.80;50.50
38361;DHT22;42005;48.044;14.416;2024-03-25T01:28:22;22.80;50.60
38361;DHT22;42005;48.044;14.416;2024-03-25T01:30:49;22.80;50.50
38361;DHT22;42005;48.044;14.416;2024-03-25T01:33:14;22.80;50.40
38361;DHT22;42005;48.044;14.416;2024-03-25T01:35:41;22.80;50.50
38361;DHT22;42005;48.044;14.416;2024-03-25T01:38:07;22.80;50.50
38361;DHT22;42005;48.044;14.416;2024-03-25T01:40:34;22.80;50.50
38361;DHT22;42005;48.044;14.416;2024-03-25T01:43:02;22.80;50.50
38361;DHT22;42005;48.044;14.416;2024-03-25T01:45:33;22.80;50.50
38361;DHT22;42005;48.044;14.416;2024-03-25T01:48:02;22.80;50.50
38361;DHT22;42005;48.044;14.416;2024-03-25T01:50:30;22.80;50.50
38361;DHT22;42005;48.044;14.416;2024-03-25T01:52:59;22.80;50.50
38361;DHT22;42005;48.044;14.416;2024-03-25T01:55:27;22.80;50.50
38361;DHT22;42005;48.044;14.416;2024-03-25T01:57:54;22.70;50.40
38361;DHT22;42005;48.044;14.416;2024-03-25T02:00:20;22.70;50.50
38361;DHT22;42005;48.044;14.416;2024-03-25T02:02:49;22.70;50.50
38361;DHT22;42005;48.044;14.416;2024-03-25T02:05:17;22.70;50.50
38361;DHT22;42005;48.044;14.416;2024-03-25T02:07:44;22.70;50.40
38361;DHT22;42005;48.044;14.416;2024-03-25T02:10:11;22.70;50.40
38361;DHT22;42005;48.044;14.416;2024-03-25T02:12:44;22.70;50.40
38361;DHT22;42005;48.044;14.416;2024-03-25T02:15:12;22.70;50.50
38361;DHT22;42005;48.044;14.416;2024-03-25T02:17:43;22.70;50.50
38361;DHT22;42005;48.044;14.416;2024-03-25T02:20:10;22.70;50.50
38361;DHT22;42005;48.044;14.416;2024-03-25T02:22:36;22.70;50.60
38361;DHT22;42005;48.044;14.416;2024-03-25T02:25:06;22.70;50.50
38361;DHT22;42005;48.044;14.416;2024-03-25T02:27:34;22.70;50.50
38361;DHT22;42005;48.044;14.416;2024-03-25T02:30:08;22.70;50.40
38361;DHT22;42005;48.044;14.416;2024-03-25T02:32:35;22.70;50.50
38361;DHT22;42005;48.044;14.416;2024-03-25T02:35:04;22.70;50.50
38361;DHT22;42005;48.044;14.416;2024-03-25T02:37:33;22.70;50.50
38361;DHT22;42005;48.044;14.416;2024-03-25T02:40:01;22.70;50.50
38361;DHT22;42005;48.044;14.416;2024-03-25T02:42:31;22.70;50.50
38361;DHT22;42005;48.044;14.416;2024-03-25T02:44:59;22.70;51.10
38361;DHT22;42005;48.044;14.416;2024-03-25T02:47:25;22.70;50.50
38361;DHT22;42005;48.044;14.416;2024-03-25T02:49:52;22.70;50.50
38361;DHT22;42005;48.044;14.416;2024-03-25T02:52:19;22.70;50.50
38361;DHT22;42005;48.044;14.416;2024-03-25T02:54:45;22.60;50.40
38361;DHT22;42005;48.044;14.416;2024-03-25T02:57:11;22.60;50.40
38361;DHT22;42005;48.044;14.416;2024-03-25T02:59:37;22.60;50.40
38361;DHT22;42005;48.044;14.416;2024-03-25T03:02:03;22.70;50.60
38361;DHT22;42005;48.044;14.416;2024-03-25T03:04:29;22.60;50.40
38361;DHT22;42005;48.044;14.416;2024-03-25T03:06:56;22.60;50.40
38361;DHT22;42005;48.044;14.416;2024-03-25T03:09:22;22.60;50.40
38361;DHT22;42005;48.044;14.416;2024-03-25T03:11:48;22.60;50.40
38361;DHT22;42005;48.044;14.416;2024-03-25T03:14:17;22.60;50.40
38361;DHT22;42005;48.044;14.416;2024-03-25T03:16:46;22.60;50.50
38361;DHT22;42005;48.044;14.416;2024-03-25T03:19:13;22.60;50.40
38361;DHT22;42005;48.044;14.416;2024-03-25T03:21:41;22.60;50.40
38361;DHT22;42005;48.044;14.416;2024-03-25T03:24:07;22.60;50.40
38361;DHT22;42005;48.044;14.416;2024-03-25T03:26:33;22.60;50.40
38361;DHT22;42005;48.044;14.416;2024-03-25T03:28:59;22.60;50.40
38361;DHT22;42005;48.044;14.416;2024-03-25T03:31:26;22.60;50.40
38361;DHT22;42005;48.044;14.416;2024-03-25T03:33:52;22.50;50.40
38361;DHT22;42005;48.044;14.416;2024-03-25T03:36:20;22.50;50.40
38361;DHT22;42005;48.044;14.416;2024-03-25T03:38:46;22.50;50.40
38361;DHT22;42005;48.044;14.416;2024-03-25T03:41:12;22.50;50.40
38361;DHT22;42005;48.044;14.416;2024-03-25T03:43:38;22.50;50.40
38361;DHT22;42005;48.044;14.416;2024-03-25T03:46:04;22.50;50.50
38361;DHT22;42005;48.044;14.416;2024-03-25T03:48:31;22.50;50.40
38361;DHT22;42005;48.044;14.416;2024-03-25T03:50:57;22.50;50.40
38361;DHT22;42005;48.044;14.416;2024-03-25T03:53:23;22.50;50.40
38361;DHT22;42005;48.044;14.416;2024-03-25T03:55:56;22.50;50.40
38361;DHT22;42005;48.044;14.416;2024-03-25T03:58:23;22.50;50.40
38361;DHT22;42005;48.044;14.416;2024-03-25T04:00:49;22.50;50.40
38361;DHT22;42005;48.044;14.416;2024-03-25T04:03:16;22.50;50.40
38361;DHT22;42005;48.044;14.416;2024-03-25T04:05:42;22.50;50.40
38361;DHT22;42005;48.044;14.416;2024-03-25T04:08:08;22.50;50.40
38361;DHT22;42005;48.044;14.416;2024-03-25T04:10:34;22.50;50.40
38361;DHT22;42005;48.044;14.416;2024-03-25T04:13:02;22.50;50.50
38361;DHT22;42005;48.044;14.416;2024-03-25T04:15:28;22.50;50.50
38361;DHT22;42005;48.044;14.416;2024-03-25T04:17:54;22.50;50.50
38361;DHT22;42005;48.044;14.416;2024-03-25T04:20:19;22.50;50.50
38361;DHT22;42005;48.044;14.416;2024-03-25T04:22:46;22.50;50.50
38361;DHT22;42005;48.044;14.416;2024-03-25T04:25:13;22.50;50.50
38361;DHT22;42005;48.044;14.416;2024-03-25T04:27:45;22.40;50.40
38361;DHT22;42005;48.044;14.416;2024-03-25T04:30:11;22.40;50.40
38361;DHT22;42005;48.044;14.416;2024-03-25T04:32:38;22.40;50.40
38361;DHT22;42005;48.044;14.416;2024-03-25T04:35:06;22.40;50.40
38361;DHT22;42005;48.044;14.416;2024-03-25T04:37:33;22.50;50.50
38361;DHT22;42005;48.044;14.416;2024-03-25T04:40:02;22.40;50.40
38361;DHT22;42005;48.044;14.416;2024-03-25T04:42:31;22.40;50.40
38361;DHT22;42005;48.044;14.416;2024-03-25T04:44:57;22.40;50.40
38361;DHT22;42005;48.044;14.416;2024-03-25T04:47:23;22.40;50.40
38361;DHT22;42005;48.044;14.416;2024-03-25T04:49:49;22.40;50.40
38361;DHT22;42005;48.044;14.416;2024-03-25T04:52:16;22.40;50.40
38361;DHT22;42005;48.044;14.416;2024-03-25T04:54:49;22.40;50.40
38361;DHT22;42005;48.044;14.416;2024-03-25T04:57:15;22.50;50.40
38361;DHT22;42005;48.044;14.416;2024-03-25T04:59:41;22.50;50.40
38361;DHT22;42005;48.044;14.416;2024-03-25T05:02:07;22.50;50.40
38361;DHT22;42005;48.044;14.416;2024-03-25T05:04:34;22.50;50.40
38361;DHT22;42005;48.044;14.416;2024-03-25T05:06:59;22.60;50.40
38361;DHT22;42005;48.044;14.416;2024-03-25T05:09:25;22.60;50.40
38361;DHT22;42005;48.044;14.416;2024-03-25T05:11:51;22.60;50.40
38361;DHT22;42005;48.044;14.416;2024-03-25T05:14:17;22.70;50.40
38361;DHT22;42005;48.044;14.416;2024-03-25T05:16:43;22.70;50.40
38361;DHT22;42005;48.044;14.416;2024-03-25T05:19:09;22.70;50.40
38361;DHT22;42005;48.044;14.416;2024-03-25T05:21:35;22.80;50.40
38361;DHT22;42005;48.044;14.416;2024-03-25T05:24:01;22.80;50.30
38361;DHT22;42005;48.044;14.416;2024-03-25T05:26:27;22.80;50.20
38361;DHT22;42005;48.044;14.416;2024-03-25T05:28:56;22.80;50.20
38361;DHT22;42005;48.044;14.416;2024-03-25T05:31:23;22.80;50.10
38361;DHT22;42005;48.044;14.416;2024-03-25T05:33:49;22.80;50.10
38361;DHT22;42005;48.044;14.416;2024-03-25T05:36:16;22.90;50.20
38361;DHT22;42005;48.044;14.416;2024-03-25T05:38:42;22.90;50.20
38361;DHT22;42005;48.044;14.416;2024-03-25T05:41:09;22.90;50.10
38361;DHT22;42005;48.044;14.416;2024-03-25T05:43:36;22.90;50.10
38361;DHT22;42005;48.044;14.416;2024-03-25T05:46:02;22.90;50.10
38361;DHT22;42005;48.044;14.416;2024-03-25T05:48:31;22.90;50.10
38361;DHT22;42005;48.044;14.416;2024-03-25T05:51:04;22.90;50.20
38361;DHT22;42005;48.044;14.416;2024-03-25T05:53:31;22.90;50.40
38361;DHT22;42005;48.044;14.416;2024-03-25T05:55:58;22.90;50.20
38361;DHT22;42005;48.044;14.416;2024-03-25T05:58:27;23.00;49.50
38361;DHT22;42005;48.044;14.416;2024-03-25T06:00:53;23.00;50.00
38361;DHT22;42005;48.044;14.416;2024-03-25T06:03:20;23.00;50.00
38361;DHT22;42005;48.044;14.416;2024-03-25T06:05:46;23.00;50.20
38361;DHT22;42005;48.044;14.416;2024-03-25T06:08:12;23.00;50.20
38361;DHT22;42005;48.044;14.416;2024-03-25T06:10:50;23.00;50.00
38361;DHT22;42005;48.044;14.416;2024-03-25T06:13:17;23.00;50.00
38361;DHT22;42005;48.044;14.416;2024-03-25T06:15:43;23.00;50.50
38361;DHT22;42005;48.044;14.416;2024-03-25T06:18:09;23.00;50.50
38361;DHT22;42005;48.044;14.416;2024-03-25T06:20:35;23.00;50.50
38361;DHT22;42005;48.044;14.416;2024-03-25T06:23:01;22.90;50.60
38361;DHT22;42005;48.044;14.416;2024-03-25T06:25:29;23.00;50.50
38361;DHT22;42005;48.044;14.416;2024-03-25T06:27:56;22.90;50.30
38361;DHT22;42005;48.044;14.416;2024-03-25T06:30:22;22.90;50.60
38361;DHT22;42005;48.044;14.416;2024-03-25T06:33:06;22.90;50.90
38361;DHT22;42005;48.044;14.416;2024-03-25T06:35:51;22.90;50.00
38361;DHT22;42005;48.044;14.416;2024-03-25T06:38:18;22.80;50.10
38361;DHT22;42005;48.044;14.416;2024-03-25T06:40:48;22.80;50.30
38361;DHT22;42005;48.044;14.416;2024-03-25T06:43:13;22.80;50.40
38361;DHT22;42005;48.044;14.416;2024-03-25T06:45:41;22.80;50.40
38361;DHT22;42005;48.044;14.416;2024-03-25T06:48:08;22.80;50.40
38361;DHT22;42005;48.044;14.416;2024-03-25T06:50:33;22.80;50.40
38361;DHT22;42005;48.044;14.416;2024-03-25T06:52:59;22.80;50.50
38361;DHT22;42005;48.044;14.416;2024-03-25T06:55:25;22.80;50.60
38361;DHT22;42005;48.044;14.416;2024-03-25T06:57:54;22.80;50.80
38361;DHT22;42005;48.044;14.416;2024-03-25T07:00:20;22.70;50.80
38361;DHT22;42005;48.044;14.416;2024-03-25T07:02:48;22.70;50.60
38361;DHT22;42005;48.044;14.416;2024-03-25T07:05:16;22.70;50.60
38361;DHT22;42005;48.044;14.416;2024-03-25T07:07:42;22.70;50.80
38361;DHT22;42005;48.044;14.416;2024-03-25T07:10:08;22.70;50.80
38361;DHT22;42005;48.044;14.416;2024-03-25T07:12:34;22.70;50.80
38361;DHT22;42005;48.044;14.416;2024-03-25T07:15:00;22.60;50.90
38361;DHT22;42005;48.044;14.416;2024-03-25T07:17:26;22.60;50.90
38361;DHT22;42005;48.044;14.416;2024-03-25T07:19:52;22.60;50.90
38361;DHT22;42005;48.044;14.416;2024-03-25T07:22:18;22.60;50.90
38361;DHT22;42005;48.044;14.416;2024-03-25T07:24:45;22.60;50.90
38361;DHT22;42005;48.044;14.416;2024-03-25T07:27:10;22.60;51.00
38361;DHT22;42005;48.044;14.416;2024-03-25T07:29:37;22.60;50.60
38361;DHT22;42005;48.044;14.416;2024-03-25T07:32:03;22.50;49.40
38361;DHT22;42005;48.044;14.416;2024-03-25T07:34:29;22.50;50.30
38361;DHT22;42005;48.044;14.416;2024-03-25T07:36:56;22.50;49.30
38361;DHT22;42005;48.044;14.416;2024-03-25T07:39:24;22.40;49.00
38361;DHT22;42005;48.044;14.416;2024-03-25T07:41:50;22.40;48.90
38361;DHT22;42005;48.044;14.416;2024-03-25T07:44:16;22.40;48.60
38361;DHT22;42005;48.044;14.416;2024-03-25T07:46:42;22.40;47.10
38361;DHT22;42005;48.044;14.416;2024-03-25T07:49:10;22.40;48.70
38361;DHT22;42005;48.044;14.416;2024-03-25T07:51:36;22.40;48.00
38361;DHT22;42005;48.044;14.416;2024-03-25T07:54:05;22.40;47.80
38361;DHT22;42005;48.044;14.416;2024-03-25T07:56:31;22.40;48.70
38361;DHT22;42005;48.044;14.416;2024-03-25T07:58:58;22.40;49.10
38361;DHT22;42005;48.044;14.416;2024-03-25T08:01:25;22.40;49.50
38361;DHT22;42005;48.044;14.416;2024-03-25T08:03:51;22.40;49.60
38361;DHT22;42005;48.044;14.416;2024-03-25T08:06:17;22.40;49.50
38361;DHT22;42005;48.044;14.416;2024-03-25T08:08:43;22.40;49.50
38361;DHT22;42005;48.044;14.416;2024-03-25T08:11:10;22.40;49.50
38361;DHT22;42005;48.044;14.416;2024-03-25T08:13:35;22.40;49.50
38361;DHT22;42005;48.044;14.416;2024-03-25T08:16:01;22.40;49.50
38361;DHT22;42005;48.044;14.416;2024-03-25T08:18:28;22.40;49.60
38361;DHT22;42005;48.044;14.416;2024-03-25T08:20:54;22.40;49.70
38361;DHT22;42005;48.044;14.416;2024-03-25T08:23:20;22.40;49.70
38361;DHT22;42005;48.044;14.416;2024-03-25T08:25:46;22.40;49.70
38361;DHT22;42005;48.044;14.416;2024-03-25T08:28:12;22.40;49.70
38361;DHT22;42005;48.044;14.416;2024-03-25T08:30:38;22.40;49.80
38361;DHT22;42005;48.044;14.416;2024-03-25T08:33:04;22.40;49.80
38361;DHT22;42005;48.044;14.416;2024-03-25T08:35:30;22.40;50.10
38361;DHT22;42005;48.044;14.416;2024-03-25T08:37:56;22.30;49.90
38361;DHT22;42005;48.044;14.416;2024-03-25T08:40:22;22.30;50.20
38361;DHT22;42005;48.044;14.416;2024-03-25T08:42:48;22.30;50.40
38361;DHT22;42005;48.044;14.416;2024-03-25T08:45:14;22.30;50.30
38361;DHT22;42005;48.044;14.416;2024-03-25T08:47:40;22.20;50.30
38361;DHT22;42005;48.044;14.416;2024-03-25T08:50:08;22.20;50.40
38361;DHT22;42005;48.044;14.416;2024-03-25T08:52:37;22.20;50.60
38361;DHT22;42005;48.044;14.416;2024-03-25T08:55:06;22.20;50.70
38361;DHT22;42005;48.044;14.416;2024-03-25T08:57:32;22.20;50.70
38361;DHT22;42005;48.044;14.416;2024-03-25T09:00:00;22.20;50.60
38361;DHT22;42005;48.044;14.416;2024-03-25T09:02:26;22.20;50.80
38361;DHT22;42005;48.044;14.416;2024-03-25T09:04:54;22.20;51.00
38361;DHT22;42005;48.044;14.416;2024-03-25T09:07:20;22.10;50.80
38361;DHT22;42005;48.044;14.416;2024-03-25T09:09:46;22.10;50.80
38361;DHT22;42005;48.044;14.416;2024-03-25T09:12:30;22.10;50.90
38361;DHT22;42005;48.044;14.416;2024-03-25T09:14:57;22.10;51.00
38361;DHT22;42005;48.044;14.416;2024-03-25T09:17:22;22.10;50.90
38361;DHT22;42005;48.044;14.416;2024-03-25T09:19:50;22.10;51.10
38361;DHT22;42005;48.044;14.416;2024-03-25T09:22:17;22.10;50.90
38361;DHT22;42005;48.044;14.416;2024-03-25T09:24:43;22.10;51.00
38361;DHT22;42005;48.044;14.416;2024-03-25T09:27:11;22.10;51.00
38361;DHT22;42005;48.044;14.416;2024-03-25T09:29:36;22.10;51.30
38361;DHT22;42005;48.044;14.416;2024-03-25T09:32:02;22.10;51.10
38361;DHT22;42005;48.044;14.416;2024-03-25T09:34:28;22.10;51.20
38361;DHT22;42005;48.044;14.416;2024-03-25T09:36:54;22.10;51.30
38361;DHT22;42005;48.044;14.416;2024-03-25T09:39:20;22.00;51.30
38361;DHT22;42005;48.044;14.416;2024-03-25T09:41:51;22.00;51.30
38361;DHT22;42005;48.044;14.416;2024-03-25T09:44:19;22.10;51.40
38361;DHT22;42005;48.044;14.416;2024-03-25T09:46:47;22.00;51.30
38361;DHT22;42005;48.044;14.416;2024-03-25T09:49:17;22.00;51.90
38361;DHT22;42005;48.044;14.416;2024-03-25T09:51:44;22.00;51.30
38361;DHT22;42005;48.044;14.416;2024-03-25T09:54:10;22.00;51.40
38361;DHT22;42005;48.044;14.416;2024-03-25T09:56:39;22.00;51.70
38361;DHT22;42005;48.044;14.416;2024-03-25T09:59:05;22.10;52.20
38361;DHT22;42005;48.044;14.416;2024-03-25T10:01:34;22.00;51.70
38361;DHT22;42005;48.044;14.416;2024-03-25T10:04:00;22.00;51.50
38361;DHT22;42005;48.044;14.416;2024-03-25T10:06:26;22.10;51.50
38361;DHT22;42005;48.044;14.416;2024-03-25T10:08:54;22.00;51.20
38361;DHT22;42005;48.044;14.416;2024-03-25T10:11:22;22.10;51.20
38361;DHT22;42005;48.044;14.416;2024-03-25T10:13:48;22.00;51.30
38361;DHT22;42005;48.044;14.416;2024-03-25T10:16:14;22.00;51.30
38361;DHT22;42005;48.044;14.416;2024-03-25T10:18:42;22.00;51.30
38361;DHT22;42005;48.044;14.416;2024-03-25T10:21:10;22.00;51.70
38361;DHT22;42005;48.044;14.416;2024-03-25T10:23:40;22.00;51.20
38361;DHT22;42005;48.044;14.416;2024-03-25T10:26:09;22.00;50.90
38361;DHT22;42005;48.044;14.416;2024-03-25T10:28:37;22.00;51.00
38361;DHT22;42005;48.044;14.416;2024-03-25T10:31:04;22.10;51.30
38361;DHT22;42005;48.044;14.416;2024-03-25T10:33:31;22.10;51.50
38361;DHT22;42005;48.044;14.416;2024-03-25T10:36:01;22.00;51.30
38361;DHT22;42005;48.044;14.416;2024-03-25T10:38:29;22.00;50.50
38361;DHT22;42005;48.044;14.416;2024-03-25T10:40:56;22.00;50.10
38361;DHT22;42005;48.044;14.416;2024-03-25T10:43:25;22.00;50.30
38361;DHT22;42005;48.044;14.416;2024-03-25T10:45:56;22.10;50.20
38361;DHT22;42005;48.044;14.416;2024-03-25T10:48:29;22.10;50.00
38361;DHT22;42005;48.044;14.416;2024-03-25T10:50:56;22.10;50.20
38361;DHT22;42005;48.044;14.416;2024-03-25T10:53:24;22.10;49.90
38361;DHT22;42005;48.044;14.416;2024-03-25T10:55:53;22.10;49.70
38361;DHT22;42005;48.044;14.416;2024-03-25T10:58:22;22.10;49.90
38361;DHT22;42005;48.044;14.416;2024-03-25T11:00:49;22.10;49.70
38361;DHT22;42005;48.044;14.416;2024-03-25T11:03:16;22.10;49.80
38361;DHT22;42005;48.044;14.416;2024-03-25T11:05:43;22.10;48.30
38361;DHT22;42005;48.044;14.416;2024-03-25T11:08:13;22.10;48.00
38361;DHT22;42005;48.044;14.416;2024-03-25T11:10:44;22.10;49.20
38361;DHT22;42005;48.044;14.416;2024-03-25T11:13:17;22.10;49.70
38361;DHT22;42005;48.044;14.416;2024-03-25T11:15:45;22.10;49.90
38361;DHT22;42005;48.044;14.416;2024-03-25T11:18:16;22.10;50.10
38361;DHT22;42005;48.044;14.416;2024-03-25T11:20:45;22.10;50.40
38361;DHT22;42005;48.044;14.416;2024-03-25T11:23:12;22.10;50.60
38361;DHT22;42005;48.044;14.416;2024-03-25T11:25:42;22.00;50.90
38361;DHT22;42005;48.044;14.416;2024-03-25T11:28:09;22.00;50.90
38361;DHT22;42005;48.044;14.416;2024-03-25T11:30:37;22.00;50.70
38361;DHT22;42005;48.044;14.416;2024-03-25T11:33:04;22.00;50.50
38361;DHT22;42005;48.044;14.416;2024-03-25T11:35:38;22.00;50.50
38361;DHT22;42005;48.044;14.416;2024-03-25T11:38:07;22.00;50.50
38361;DHT22;42005;48.044;14.416;2024-03-25T11:40:34;22.00;50.50
38361;DHT22;42005;48.044;14.416;2024-03-25T11:43:03;22.00;50.60
38361;DHT22;42005;48.044;14.416;2024-03-25T11:45:31;22.10;50.70
38361;DHT22;42005;48.044;14.416;2024-03-25T11:47:58;22.10;50.70
38361;DHT22;42005;48.044;14.416;2024-03-25T11:50:24;22.10;50.60
38361;DHT22;42005;48.044;14.416;2024-03-25T11:52:52;22.10;50.70
38361;DHT22;42005;48.044;14.416;2024-03-25T11:55:18;22.10;50.70
38361;DHT22;42005;48.044;14.416;2024-03-25T11:57:46;22.10;50.60
38361;DHT22;42005;48.044;14.416;2024-03-25T12:00:14;22.10;50.60
38361;DHT22;42005;48.044;14.416;2024-03-25T12:02:45;22.10;50.60
38361;DHT22;42005;48.044;14.416;2024-03-25T12:05:12;22.10;50.60
38361;DHT22;42005;48.044;14.416;2024-03-25T12:07:38;22.10;50.60
38361;DHT22;42005;48.044;14.416;2024-03-25T12:10:04;22.10;50.50
38361;DHT22;42005;48.044;14.416;2024-03-25T12:12:49;22.10;50.60
38361;DHT22;42005;48.044;14.416;2024-03-25T12:15:16;22.10;50.60
38361;DHT22;42005;48.044;14.416;2024-03-25T12:17:43;22.10;50.60
38361;DHT22;42005;48.044;14.416;2024-03-25T12:20:11;22.10;50.50
38361;DHT22;42005;48.044;14.416;2024-03-25T12:22:38;22.10;50.60
38361;DHT22;42005;48.044;14.416;2024-03-25T12:25:05;22.10;50.60
38361;DHT22;42005;48.044;14.416;2024-03-25T12:27:32;22.10;50.60
38361;DHT22;42005;48.044;14.416;2024-03-25T12:30:19;22.10;50.60
38361;DHT22;42005;48.044;14.416;2024-03-25T12:32:45;22.10;50.60
38361;DHT22;42005;48.044;14.416;2024-03-25T12:35:13;22.10;50.60
38361;DHT22;42005;48.044;14.416;2024-03-25T12:37:42;22.10;50.60
38361;DHT22;42005;48.044;14.416;2024-03-25T12:40:12;22.10;50.60
38361;DHT22;42005;48.044;14.416;2024-03-25T12:42:40;22.10;50.60
38361;DHT22;42005;48.044;14.416;2024-03-25T12:45:06;22.10;50.60
38361;DHT22;42005;48.044;14.416;2024-03-25T12:47:35;22.10;50.60
38361;DHT22;42005;48.044;14.416;2024-03-25T12:50:01;22.10;50.60
38361;DHT22;42005;48.044;14.416;2024-03-25T12:52:27;22.10;50.60
38361;DHT22;42005;48.044;14.416;2024-03-25T12:54:53;22.20;50.60
38361;DHT22;42005;48.044;14.416;2024-03-25T12:57:19;22.20;50.60
38361;DHT22;42005;48.044;14.416;2024-03-25T12:59:46;22.20;50.60
38361;DHT22;42005;48.044;14.416;2024-03-25T13:02:12;22.20;50.60
38361;DHT22;42005;48.044;14.416;2024-03-25T13:04:39;22.20;50.50
38361;DHT22;42005;48.044;14.416;2024-03-25T13:07:07;22.20;50.50
38361;DHT22;42005;48.044;14.416;2024-03-25T13:09:35;22.20;50.50
38361;DHT22;42005;48.044;14.416;2024-03-25T13:12:01;22.20;50.50
38361;DHT22;42005;48.044;14.416;2024-03-25T13:14:27;22.20;50.40
38361;DHT22;42005;48.044;14.416;2024-03-25T13:16:53;22.20;50.60
38361;DHT22;42005;48.044;14.416;2024-03-25T13:19:19;22.20;50.90
38361;DHT22;42005;48.044;14.416;2024-03-25T13:21:45;22.20;51.00
38361;DHT22;42005;48.044;14.416;2024-03-25T13:24:14;22.20;51.10
38361;DHT22;42005;48.044;14.416;2024-03-25T13:26:40;22.20;51.00
38361;DHT22;42005;48.044;14.416;2024-03-25T13:29:06;22.20;51.10
38361;DHT22;42005;48.044;14.416;2024-03-25T13:31:34;22.20;51.20
38361;DHT22;42005;48.044;14.416;2024-03-25T13:34:00;22.20;51.60
38361;DHT22;42005;48.044;14.416;2024-03-25T13:36:25;22.20;49.50
38361;DHT22;42005;48.044;14.416;2024-03-25T13:38:54;22.10;49.90
38361;DHT22;42005;48.044;14.416;2024-03-25T13:41:19;22.10;49.40
38361;DHT22;42005;48.044;14.416;2024-03-25T13:43:48;22.10;49.30
38361;DHT22;42005;48.044;14.416;2024-03-25T13:46:14;22.10;49.50
38361;DHT22;42005;48.044;14.416;2024-03-25T13:48:40;22.10;49.60
38361;DHT22;42005;48.044;14.416;2024-03-25T13:51:06;22.20;50.20
38361;DHT22;42005;48.044;14.416;2024-03-25T13:53:32;22.10;50.50
38361;DHT22;42005;48.044;14.416;2024-03-25T13:55:58;22.10;50.70
38361;DHT22;42005;48.044;14.416;2024-03-25T13:58:25;22.10;50.90
38361;DHT22;42005;48.044;14.416;2024-03-25T14:00:51;22.10;50.70
38361;DHT22;42005;48.044;14.416;2024-03-25T14:03:17;22.10;50.60
38361;DHT22;42005;48.044;14.416;2024-03-25T14:05:44;22.10;50.60
38361;DHT22;42005;48.044;14.416;2024-03-25T14:08:10;22.00;50.70
38361;DHT22;42005;48.044;14.416;2024-03-25T14:10:36;22.00;51.10
38361;DHT22;42005;48.044;14.416;2024-03-25T14:13:02;22.10;51.30
38361;DHT22;42005;48.044;14.416;2024-03-25T14:15:31;22.10;51.20
38361;DHT22;42005;48.044;14.416;2024-03-25T14:17:57;22.10;51.10
38361;DHT22;42005;48.044;14.416;2024-03-25T14:20:23;22.10;51.10
38361;DHT22;42005;48.044;14.416;2024-03-25T14:22:49;22.10;50.70
38361;DHT22;42005;48.044;14.416;2024-03-25T14:25:15;22.10;50.70
38361;DHT22;42005;48.044;14.416;2024-03-25T14:27:41;22.10;50.80
38361;DHT22;42005;48.044;14.416;2024-03-25T14:30:10;22.10;50.90
38361;DHT22;42005;48.044;14.416;2024-03-25T14:32:36;22.10;50.80
38361;DHT22;42005;48.044;14.416;2024-03-25T14:35:04;22.10;50.90
38361;DHT22;42005;48.044;14.416;2024-03-25T14:37:32;22.10;51.10
38361;DHT22;42005;48.044;14.416;2024-03-25T14:39:58;22.10;51.50
38361;DHT22;42005;48.044;14.416;2024-03-25T14:42:27;22.10;51.40
38361;DHT22;42005;48.044;14.416;2024-03-25T14:44:54;22.10;51.40
38361;DHT22;42005;48.044;14.416;2024-03-25T14:47:20;22.10;51.50
38361;DHT22;42005;48.044;14.416;2024-03-25T14:49:45;22.20;51.60
38361;DHT22;42005;48.044;14.416;2024-03-25T14:52:11;22.20;51.40
38361;DHT22;42005;48.044;14.416;2024-03-25T14:54:38;22.20;51.70
38361;DHT22;42005;48.044;14.416;2024-03-25T14:57:04;22.30;52.30
38361;DHT22;42005;48.044;14.416;2024-03-25T14:59:30;22.20;51.40
38361;DHT22;42005;48.044;14.416;2024-03-25T15:02:00;22.30;51.60
38361;DHT22;42005;48.044;14.416;2024-03-25T15:04:27;22.30;51.60
38361;DHT22;42005;48.044;14.416;2024-03-25T15:06:53;22.20;51.50
38361;DHT22;42005;48.044;14.416;2024-03-25T15:09:19;22.20;51.50
38361;DHT22;42005;48.044;14.416;2024-03-25T15:11:45;22.20;51.60
38361;DHT22;42005;48.044;14.416;2024-03-25T15:14:11;22.20;51.50